createdAt,value
2023-03-21T00:00:01.222Z,97.21
2023-03-21T00:05:09.491Z,98.50
2023-03-21T00:10:12.354Z,98.86
2023-03-21T00:15:00.494Z,99.14
2023-03-21T00:20:02.878Z,98.99
2023-03-21T00:25:00.646Z,99.38
2023-03-21T00:30:00.528Z,99.27
2023-03-21T00:35:25.806Z,99.66
2023-03-21T00:40:00.785Z,99.21
2023-03-21T00:45:01.123Z,98.94
2023-03-21T00:50:00.487Z,98.57
2023-03-21T00:55:00.490Z,98.44
2023-03-21T01:00:02.394Z,98.33
2023-03-21T01:05:00.589Z,97.99
2023-03-21T01:10:00.514Z,97.49
2023-03-21T01:15:00.512Z,96.97
2023-03-21T01:20:00.500Z,96.71
2023-03-21T01:25:12.107Z,96.45
2023-03-21T01:30:00.495Z,96.27
2023-03-21T01:35:00.545Z,96.10
2023-03-21T01:40:01.103Z,95.61
2023-03-21T01:45:04.867Z,95.61
2023-03-21T01:50:02.859Z,96.00
2023-03-21T01:55:03.193Z,96.41
2023-03-21T02:00:04.490Z,96.58
2023-03-21T02:05:01.948Z,96.75
2023-03-21T02:10:03.132Z,96.68
2023-03-21T02:15:00.815Z,96.84
2023-03-21T02:20:09.026Z,96.38
2023-03-21T02:25:22.139Z,96.58
2023-03-21T02:30:04.801Z,96.64
2023-03-21T02:35:20.380Z,96.50
2023-03-21T02:40:10.583Z,96.50
2023-03-21T02:45:10.090Z,96.77
2023-03-21T02:50:11.797Z,96.58
2023-03-21T02:55:01.617Z,96.72
2023-03-21T03:00:10.731Z,96.52
2023-03-21T03:05:00.505Z,96.73
2023-03-21T03:10:07.102Z,96.37
2023-03-21T03:15:10.515Z,96.95
2023-03-21T03:20:17.625Z,96.73
2023-03-21T03:25:19.858Z,96.35
2023-03-21T03:30:02.303Z,96.70
2023-03-21T03:35:03.544Z,96.46
2023-03-21T03:40:12.281Z,96.32
2023-03-21T03:45:01.253Z,96.19
2023-03-21T03:50:03.562Z,95.83
2023-03-21T03:55:01.037Z,95.75
2023-03-21T04:00:01.313Z,95.41
2023-03-21T04:05:00.504Z,95.04
2023-03-21T04:10:00.544Z,95.12
2023-03-21T04:15:10.458Z,94.96
2023-03-21T04:20:10.804Z,94.61
2023-03-21T04:25:00.723Z,94.48
2023-03-21T04:30:00.515Z,94.26
2023-03-21T04:35:00.627Z,94.38
2023-03-21T04:40:01.521Z,94.42
2023-03-21T04:45:01.293Z,94.28
2023-03-21T04:50:00.522Z,94.11
2023-03-21T04:55:00.631Z,93.88
2023-03-21T05:00:03.054Z,93.81
2023-03-21T05:05:00.546Z,93.86
2023-03-21T05:10:02.421Z,93.89
2023-03-21T05:15:00.561Z,93.66
2023-03-21T05:20:00.604Z,93.66
2023-03-21T05:25:00.533Z,93.63
2023-03-21T05:30:02.991Z,93.50
2023-03-21T05:35:00.977Z,93.64
2023-03-21T05:40:01.625Z,93.45
2023-03-21T05:45:00.513Z,93.07
2023-03-21T05:50:00.519Z,93.05
2023-03-21T05:55:00.668Z,93.00
2023-03-21T06:00:01.450Z,92.67
2023-03-21T06:05:00.480Z,92.59
2023-03-21T06:10:00.505Z,92.31
2023-03-21T06:15:00.572Z,92.12
2023-03-21T06:20:01.038Z,91.78
2023-03-21T06:25:01.312Z,91.61
2023-03-21T06:30:01.133Z,91.29
2023-03-21T06:35:00.668Z,91.30
2023-03-21T06:40:00.538Z,90.93
2023-03-21T06:45:00.491Z,90.95
2023-03-21T06:50:01.170Z,90.38
2023-03-21T06:55:00.612Z,90.66
2023-03-21T07:00:01.307Z,90.59
2023-03-21T07:05:00.499Z,90.45
2023-03-21T07:10:00.509Z,90.55
2023-03-21T07:15:03.157Z,90.26
2023-03-21T07:20:00.550Z,90.31
2023-03-21T07:25:05.033Z,90.78
2023-03-21T07:30:00.494Z,90.74
2023-03-21T07:35:01.782Z,90.77
2023-03-21T07:40:00.504Z,90.85
2023-03-21T07:45:00.520Z,90.63
2023-03-21T07:50:00.815Z,90.65
2023-03-21T07:55:00.548Z,90.31
2023-03-21T08:00:01.260Z,89.89
2023-03-21T08:05:01.206Z,89.75
2023-03-21T08:10:00.502Z,89.66
2023-03-21T08:15:01.276Z,89.97
2023-03-21T08:20:00.538Z,89.57
2023-03-21T08:25:00.948Z,90.23
2023-03-21T08:30:00.618Z,90.67
2023-03-21T08:35:01.780Z,91.02
2023-03-21T08:40:00.565Z,91.32
2023-03-21T08:45:00.567Z,91.09
2023-03-21T08:50:00.595Z,91.20
2023-03-21T08:55:00.580Z,90.56
2023-03-21T09:00:01.133Z,90.63
2023-03-21T09:05:00.569Z,90.38
2023-03-21T09:10:19.636Z,90.50
2023-03-21T09:15:00.943Z,90.26
2023-03-21T09:20:00.596Z,89.91
2023-03-21T09:25:00.490Z,89.28
2023-03-21T09:30:00.506Z,89.45
2023-03-21T09:35:00.562Z,88.81
2023-03-21T09:40:00.486Z,88.65
2023-03-21T09:45:07.616Z,88.37
2023-03-21T09:50:14.784Z,87.17
2023-03-21T09:55:02.176Z,87.21
2023-03-21T10:00:05.864Z,86.57
2023-03-21T10:05:01.923Z,85.80
2023-03-21T10:10:01.944Z,85.48
2023-03-21T10:15:01.211Z,85.24
2023-03-21T10:20:17.766Z,84.66
2023-03-21T10:25:00.581Z,83.89
2023-03-21T10:30:00.992Z,82.84
2023-03-21T10:35:01.544Z,82.97
2023-03-21T10:40:00.799Z,82.62
2023-03-21T10:45:00.532Z,81.40
2023-03-21T10:50:07.841Z,80.75
2023-03-21T10:55:18.056Z,79.58
2023-03-21T11:00:04.377Z,79.12
2023-03-21T11:05:06.390Z,80.35
2023-03-21T11:10:17.184Z,79.41
2023-03-21T11:15:20.435Z,79.06
2023-03-21T11:20:04.871Z,79.48
2023-03-21T11:25:03.922Z,79.04
2023-03-21T11:30:02.748Z,76.99
2023-03-21T11:35:06.466Z,79.29
2023-03-21T11:40:08.130Z,78.37
2023-03-21T11:45:09.007Z,77.32
2023-03-21T11:50:04.969Z,77.36
2023-03-21T11:55:11.553Z,76.63
2023-03-21T12:00:10.802Z,77.14
2023-03-21T12:05:08.585Z,77.20
2023-03-21T12:10:20.245Z,77.21
2023-03-21T12:15:14.843Z,76.93
2023-03-21T12:20:06.852Z,74.96
2023-03-21T12:25:11.021Z,75.39
2023-03-21T12:30:09.484Z,73.38
2023-03-21T12:35:20.398Z,73.02
2023-03-21T12:40:17.608Z,73.59
2023-03-21T12:45:15.315Z,72.07
2023-03-21T12:50:20.383Z,72.86
2023-03-21T12:55:06.667Z,72.31
2023-03-21T13:00:15.016Z,72.15
2023-03-21T13:05:20.033Z,70.98
2023-03-21T13:10:03.730Z,67.34
2023-03-21T13:15:21.830Z,64.88
2023-03-21T13:20:14.297Z,64.41
2023-03-21T13:25:06.590Z,64.70
2023-03-21T13:30:06.767Z,60.20
2023-03-21T13:35:20.435Z,60.53
2023-03-21T13:40:05.760Z,60.39
2023-03-21T13:45:04.731Z,62.48
2023-03-21T13:50:20.000Z,62.66
2023-03-21T13:55:01.856Z,62.64
2023-03-21T14:00:19.891Z,63.99
2023-03-21T14:05:05.956Z,63.03
2023-03-21T14:10:05.162Z,63.73
2023-03-21T14:15:15.891Z,62.51
2023-03-21T14:20:09.129Z,62.45
2023-03-21T14:25:02.533Z,62.76
2023-03-21T14:30:02.171Z,62.62
2023-03-21T14:35:00.781Z,63.11
2023-03-21T14:40:05.141Z,62.69
2023-03-21T14:45:13.452Z,62.92
2023-03-21T14:50:00.721Z,64.22
2023-03-21T14:55:04.222Z,64.51
2023-03-21T15:00:05.530Z,64.92
2023-03-21T15:05:14.247Z,65.16
2023-03-21T15:10:04.280Z,65.69
2023-03-21T15:15:01.517Z,66.41
2023-03-21T15:20:00.934Z,67.55
2023-03-21T15:25:04.531Z,67.27
2023-03-21T15:30:00.534Z,67.93
2023-03-21T15:35:06.976Z,67.72
2023-03-21T15:40:19.307Z,67.41
2023-03-21T15:45:07.581Z,67.61
2023-03-21T15:50:07.192Z,67.48
2023-03-21T15:55:00.775Z,68.82
2023-03-21T16:00:20.732Z,69.18
2023-03-21T16:05:12.416Z,69.33
2023-03-21T16:10:02.978Z,70.37
2023-03-21T16:15:00.713Z,70.81
2023-03-21T16:20:00.508Z,71.62
2023-03-21T16:25:00.540Z,71.62
2023-03-21T16:30:00.592Z,73.86
2023-03-21T16:35:00.496Z,75.18
2023-03-21T16:40:01.254Z,75.79
2023-03-21T16:45:00.504Z,76.52
2023-03-21T16:50:00.630Z,78.36
2023-03-21T16:55:00.511Z,80.09
2023-03-21T17:00:01.303Z,79.89
2023-03-21T17:05:01.319Z,80.92
2023-03-21T17:10:00.488Z,80.53
2023-03-21T17:15:00.794Z,80.90
2023-03-21T17:20:01.024Z,80.54
2023-03-21T17:25:00.498Z,80.37
2023-03-21T17:30:00.815Z,81.64
2023-03-21T17:35:00.574Z,81.34
2023-03-21T17:40:00.468Z,81.89
2023-03-21T17:45:00.537Z,82.98
2023-03-21T17:50:00.999Z,82.97
2023-03-21T17:55:00.577Z,83.20
2023-03-21T18:00:01.339Z,82.81
2023-03-21T18:05:00.575Z,83.36
2023-03-21T18:10:00.562Z,84.02
2023-03-21T18:15:02.301Z,83.96
2023-03-21T18:20:00.685Z,84.09
2023-03-21T18:25:00.491Z,84.66
2023-03-21T18:30:41.249Z,84.60
2023-03-21T18:35:00.765Z,84.63
2023-03-21T18:40:00.685Z,84.27
2023-03-21T18:45:00.576Z,84.16
2023-03-21T18:50:15.279Z,84.58
2023-03-21T18:55:00.572Z,84.74
2023-03-21T19:00:03.101Z,84.61
2023-03-21T19:05:00.607Z,84.51
2023-03-21T19:10:17.149Z,84.73
2023-03-21T19:15:00.599Z,84.51
2023-03-21T19:20:00.498Z,85.01
2023-03-21T19:25:00.491Z,84.76
2023-03-21T19:30:13.422Z,84.59
2023-03-21T19:35:00.617Z,85.49
2023-03-21T19:40:00.737Z,85.47
2023-03-21T19:45:01.272Z,85.95
2023-03-21T19:50:47.207Z,86.26
2023-03-21T19:55:00.549Z,85.91
2023-03-21T20:00:01.426Z,85.81
2023-03-21T20:05:00.491Z,85.46
2023-03-21T20:10:00.508Z,85.42
2023-03-21T20:15:12.255Z,85.14
2023-03-21T20:20:00.592Z,84.81
2023-03-21T20:25:00.620Z,84.76
2023-03-21T20:30:09.056Z,84.82
2023-03-21T20:35:13.669Z,85.18
2023-03-21T20:40:00.921Z,85.17
2023-03-21T20:45:00.922Z,85.42
2023-03-21T20:50:00.485Z,85.58
2023-03-21T20:55:01.335Z,85.83
2023-03-21T21:00:01.116Z,85.06
2023-03-21T21:05:28.314Z,85.42
2023-03-21T21:10:00.530Z,85.42
2023-03-21T21:15:00.616Z,86.25
2023-03-21T21:20:03.854Z,86.57
2023-03-21T21:25:00.498Z,86.39
2023-03-21T21:30:00.611Z,87.32
2023-03-21T21:35:00.582Z,87.84
2023-03-21T21:40:00.867Z,87.71
2023-03-21T21:45:00.509Z,88.53
2023-03-21T21:50:00.596Z,87.56
2023-03-21T21:55:00.813Z,87.25
2023-03-21T22:00:02.898Z,87.76
2023-03-21T22:05:00.483Z,86.87
2023-03-21T22:10:00.553Z,85.70
2023-03-21T22:15:00.813Z,84.58
2023-03-21T22:20:06.020Z,84.51
2023-03-21T22:25:00.744Z,84.17
2023-03-21T22:30:01.036Z,83.00
2023-03-21T22:35:00.892Z,82.02
2023-03-21T22:40:00.616Z,81.42
2023-03-21T22:45:00.547Z,81.60
2023-03-21T22:50:00.878Z,81.87
2023-03-21T22:55:00.600Z,81.99
2023-03-21T23:00:02.777Z,82.31
2023-03-21T23:05:00.474Z,82.72
2023-03-21T23:10:00.520Z,83.03
2023-03-21T23:15:02.253Z,83.15
2023-03-21T23:20:01.345Z,83.10
2023-03-21T23:25:00.624Z,82.99
2023-03-21T23:30:01.341Z,82.67
2023-03-21T23:35:00.553Z,82.67
2023-03-21T23:40:00.768Z,82.51
2023-03-21T23:45:00.553Z,82.26
2023-03-21T23:50:00.555Z,82.00
2023-03-21T23:55:00.500Z,81.67
